createdAt,value
2018-07-19T00:01:12.575Z,8.27
2018-07-19T00:03:40.969Z,12.53
2018-07-19T00:06:09.409Z,12.70
2018-07-19T00:08:37.785Z,9.00
2018-07-19T00:11:06.472Z,13.00
2018-07-19T00:13:34.869Z,13.90
2018-07-19T00:16:03.304Z,20.90
2018-07-19T00:18:31.693Z,7.10
2018-07-19T00:21:00.097Z,7.40
2018-07-19T00:23:28.485Z,6.60
2018-07-19T00:25:57.885Z,7.43
2018-07-19T00:28:26.286Z,20.90
2018-07-19T00:30:54.680Z,7.70
2018-07-19T00:33:23.357Z,11.00
2018-07-19T00:35:52.169Z,15.80
2018-07-19T00:38:20.730Z,17.10
2018-07-19T00:40:49.150Z,12.73
2018-07-19T00:43:17.554Z,21.63
2018-07-19T00:45:45.961Z,10.03
2018-07-19T00:48:14.345Z,9.97
2018-07-19T00:50:42.766Z,10.70
2018-07-19T00:53:11.413Z,7.60
2018-07-19T00:55:40.225Z,11.50
2018-07-19T00:58:08.610Z,7.03
2018-07-19T01:00:37.037Z,12.77
2018-07-19T01:03:05.474Z,12.57
2018-07-19T01:05:33.894Z,21.17
2018-07-19T01:08:02.274Z,15.27
2018-07-19T01:10:30.690Z,16.00
2018-07-19T01:12:59.074Z,19.10
2018-07-19T01:15:27.509Z,10.70
2018-07-19T01:17:55.897Z,12.90
2018-07-19T01:20:24.325Z,12.10
2018-07-19T01:22:52.731Z,14.73
2018-07-19T01:25:21.157Z,11.40
2018-07-19T01:27:49.550Z,8.93
2018-07-19T01:30:17.949Z,14.47
2018-07-19T01:32:46.349Z,16.37
2018-07-19T01:35:14.782Z,11.73
2018-07-19T01:37:43.161Z,15.70
2018-07-19T01:40:11.589Z,10.43
2018-07-19T01:42:41.267Z,17.63
2018-07-19T01:45:10.474Z,17.03
2018-07-19T01:47:39.005Z,15.63
2018-07-19T01:50:08.216Z,17.63
2018-07-19T01:52:36.613Z,15.30
2018-07-19T01:55:05.601Z,15.63
2018-07-19T01:57:34.059Z,16.50
2018-07-19T02:00:02.458Z,12.30
2018-07-19T02:02:30.883Z,11.43
2018-07-19T02:04:59.266Z,19.63
2018-07-19T02:07:27.674Z,15.63
2018-07-19T02:09:56.059Z,18.40
2018-07-19T02:12:24.493Z,15.70
2018-07-19T02:14:52.915Z,18.30
2018-07-19T02:17:21.326Z,14.87
2018-07-19T02:19:49.734Z,11.67
2018-07-19T02:22:18.146Z,16.93
2018-07-19T02:24:46.539Z,16.93
2018-07-19T02:27:14.965Z,14.30
2018-07-19T02:29:43.342Z,12.63
2018-07-19T02:32:11.758Z,22.10
2018-07-19T02:34:40.168Z,16.13
2018-07-19T02:37:08.593Z,15.20
2018-07-19T02:39:36.998Z,14.70
2018-07-19T02:42:05.442Z,17.63
2018-07-19T02:44:33.841Z,22.60
2018-07-19T02:47:02.246Z,22.93
2018-07-19T02:49:30.639Z,20.00
2018-07-19T02:51:59.073Z,30.63
2018-07-19T02:54:27.474Z,22.10
2018-07-19T02:56:55.877Z,23.93
2018-07-19T02:59:24.263Z,28.17
2018-07-19T03:01:52.692Z,22.10
2018-07-19T03:04:21.089Z,22.47
2018-07-19T03:06:49.567Z,30.97
2018-07-19T03:09:17.959Z,24.60
2018-07-19T03:11:46.393Z,20.60
2018-07-19T03:14:14.785Z,26.20
2018-07-19T03:16:43.222Z,23.30
2018-07-19T03:19:11.623Z,22.07
2018-07-19T03:21:40.035Z,30.20
2018-07-19T03:24:08.431Z,45.93
2018-07-19T03:26:36.850Z,31.63
2018-07-19T03:31:45.790Z,27.97
2018-07-19T03:34:14.182Z,24.43
2018-07-19T03:36:42.602Z,33.30
2018-07-19T03:39:11.774Z,28.90
2018-07-19T03:41:40.382Z,21.30
2018-07-19T03:44:08.786Z,34.00
2018-07-19T03:46:37.439Z,23.70
2018-07-19T03:49:06.016Z,31.97
2018-07-19T03:51:34.443Z,21.47
2018-07-19T03:54:02.829Z,29.67
2018-07-19T03:56:31.262Z,32.53
2018-07-19T03:58:59.650Z,24.37
2018-07-19T04:01:28.050Z,31.40
2018-07-19T04:03:56.602Z,25.53
2018-07-19T04:06:24.982Z,26.93
2018-07-19T04:08:53.406Z,32.93
2018-07-19T04:11:21.790Z,26.57
2018-07-19T04:13:50.201Z,21.30
2018-07-19T04:16:18.644Z,28.10
2018-07-19T04:18:47.186Z,28.20
2018-07-19T04:21:15.625Z,25.70
2018-07-19T04:23:44.040Z,35.80
2018-07-19T04:26:12.605Z,36.77
2018-07-19T04:28:41.030Z,23.23
2018-07-19T04:31:09.486Z,20.17
2018-07-19T04:33:37.908Z,25.63
2018-07-19T04:36:06.298Z,19.50
2018-07-19T04:38:34.730Z,20.70
2018-07-19T04:41:03.139Z,23.33
2018-07-19T04:43:31.558Z,19.63
2018-07-19T04:45:59.954Z,26.40
2018-07-19T04:48:28.361Z,21.30
2018-07-19T04:50:56.779Z,22.13
2018-07-19T04:53:25.191Z,25.27
2018-07-19T04:55:53.669Z,27.50
2018-07-19T04:58:22.078Z,22.77
2018-07-19T05:00:50.486Z,15.93
2018-07-19T05:03:18.897Z,19.67
2018-07-19T05:05:47.294Z,22.27
2018-07-19T05:08:15.703Z,26.23
2018-07-19T05:10:44.101Z,25.57
2018-07-19T05:13:12.509Z,21.10
2018-07-19T05:15:40.919Z,17.23
2018-07-19T05:18:09.508Z,23.07
2018-07-19T05:20:37.913Z,23.10
2018-07-19T05:23:06.477Z,13.60
2018-07-19T05:25:34.867Z,16.20
2018-07-19T05:28:03.281Z,13.07
2018-07-19T05:30:31.799Z,16.27
2018-07-19T05:33:00.222Z,19.40
2018-07-19T05:35:28.639Z,18.10
2018-07-19T05:37:57.068Z,14.03
2018-07-19T05:40:25.461Z,21.50
2018-07-19T05:42:53.880Z,15.67
2018-07-19T05:45:22.270Z,15.43
2018-07-19T05:47:50.681Z,23.47
2018-07-19T05:50:19.078Z,28.20
2018-07-19T05:52:47.494Z,17.67
2018-07-19T05:55:15.886Z,11.93
2018-07-19T05:57:44.314Z,14.50
2018-07-19T06:00:12.716Z,24.07
2018-07-19T06:02:41.118Z,11.97
2018-07-19T06:05:09.518Z,15.90
2018-07-19T06:07:37.908Z,12.07
2018-07-19T06:10:11.669Z,18.27
2018-07-19T06:12:40.058Z,17.57
2018-07-19T06:15:08.495Z,18.93
2018-07-19T06:17:36.870Z,14.00
2018-07-19T06:20:05.673Z,12.73
2018-07-19T06:22:34.067Z,11.30
2018-07-19T06:25:02.506Z,13.47
2018-07-19T06:27:30.916Z,16.80
2018-07-19T06:29:59.343Z,11.30
2018-07-19T06:32:27.730Z,12.50
2018-07-19T06:34:56.153Z,12.57
2018-07-19T06:37:24.541Z,9.90
2018-07-19T06:39:52.958Z,16.40
2018-07-19T06:42:21.350Z,16.73
2018-07-19T06:44:49.767Z,15.13
2018-07-19T06:47:18.194Z,19.53
2018-07-19T06:49:46.599Z,18.13
2018-07-19T06:52:15.011Z,10.47
2018-07-19T06:54:43.885Z,8.50
2018-07-19T06:57:12.266Z,9.63
2018-07-19T06:59:40.681Z,10.37
2018-07-19T07:02:09.064Z,10.73
2018-07-19T07:04:37.474Z,8.37
2018-07-19T07:07:06.286Z,6.73
2018-07-19T07:09:34.795Z,15.77
2018-07-19T07:12:03.211Z,11.80
2018-07-19T07:14:31.666Z,10.30
2018-07-19T07:17:00.153Z,23.27
2018-07-19T07:19:28.619Z,13.23
2018-07-19T07:21:56.988Z,8.30
2018-07-19T07:24:25.409Z,12.03
2018-07-19T07:26:53.787Z,11.03
2018-07-19T07:29:22.195Z,11.23
2018-07-19T07:31:50.603Z,8.97
2018-07-19T07:34:19.007Z,13.80
2018-07-19T07:36:47.422Z,9.13
2018-07-19T07:39:15.889Z,11.70
2018-07-19T07:41:44.353Z,16.00
2018-07-19T07:44:12.794Z,14.20
2018-07-19T07:46:41.166Z,5.87
2018-07-19T07:49:09.598Z,9.97
2018-07-19T07:51:38.034Z,11.07
2018-07-19T07:54:06.489Z,7.87
2018-07-19T07:56:34.849Z,10.70
2018-07-19T07:59:03.288Z,9.80
2018-07-19T08:01:31.709Z,15.20
2018-07-19T08:04:00.093Z,7.73
2018-07-19T08:06:28.513Z,18.83
2018-07-19T08:08:56.928Z,9.20
2018-07-19T08:11:25.328Z,10.53
2018-07-19T08:13:53.731Z,6.93
2018-07-19T08:16:22.175Z,4.37
2018-07-19T08:18:50.678Z,9.13
2018-07-19T08:21:19.090Z,6.80
2018-07-19T08:23:47.478Z,13.27
2018-07-19T08:26:15.894Z,4.37
2018-07-19T08:28:44.291Z,8.17
2018-07-19T08:31:12.709Z,4.13
2018-07-19T08:33:41.089Z,6.27
2018-07-19T08:36:09.544Z,4.63
2018-07-19T08:38:37.974Z,11.70
2018-07-19T08:41:06.402Z,3.57
2018-07-19T08:43:34.872Z,7.27
2018-07-19T08:46:03.276Z,4.30
2018-07-19T08:48:31.658Z,7.80
2018-07-19T08:51:00.078Z,5.40
2018-07-19T08:53:28.462Z,3.00
2018-07-19T08:55:56.861Z,2.27
2018-07-19T08:58:25.261Z,3.10
2018-07-19T09:00:53.663Z,4.80
2018-07-19T09:03:22.645Z,4.60
2018-07-19T09:05:51.083Z,2.37
2018-07-19T09:08:19.482Z,3.97
2018-07-19T09:10:47.878Z,3.97
2018-07-19T09:13:16.291Z,3.87
2018-07-19T09:15:44.722Z,8.17
2018-07-19T09:18:13.116Z,3.27
2018-07-19T09:20:41.506Z,3.00
2018-07-19T09:23:09.903Z,1.97
2018-07-19T09:25:38.314Z,7.60
2018-07-19T09:28:06.734Z,5.20
2018-07-19T09:30:35.138Z,5.37
2018-07-19T09:33:03.531Z,1.80
2018-07-19T09:35:31.937Z,6.57
2018-07-19T09:38:00.325Z,2.53
2018-07-19T09:40:28.726Z,3.73
2018-07-19T09:42:57.103Z,4.47
2018-07-19T09:45:25.493Z,1.80
2018-07-19T09:47:53.893Z,2.50
2018-07-19T09:50:22.289Z,5.20
2018-07-19T09:52:50.659Z,1.23
2018-07-19T09:55:19.062Z,2.40
2018-07-19T09:57:47.473Z,3.80
2018-07-19T10:00:20.039Z,11.40
2018-07-19T10:02:48.422Z,1.63
2018-07-19T10:05:16.798Z,1.20
2018-07-19T10:07:45.317Z,2.00
2018-07-19T10:10:13.688Z,5.20
2018-07-19T10:12:42.086Z,3.30
2018-07-19T10:15:10.491Z,3.27
2018-07-19T10:17:38.914Z,5.37
2018-07-19T10:20:07.306Z,1.13
2018-07-19T10:22:35.705Z,1.00
2018-07-19T10:25:04.097Z,1.77
2018-07-19T10:27:32.498Z,2.63
2018-07-19T10:30:00.878Z,1.60
2018-07-19T10:32:29.366Z,4.30
2018-07-19T10:34:57.703Z,1.73
2018-07-19T10:37:26.110Z,1.43
2018-07-19T10:39:54.503Z,4.40
2018-07-19T10:42:23.349Z,1.77
2018-07-19T10:44:51.737Z,1.10
2018-07-19T10:47:20.627Z,1.43
2018-07-19T10:49:49.017Z,1.00
2018-07-19T10:52:17.406Z,1.37
2018-07-19T10:54:46.256Z,1.57
2018-07-19T10:57:14.663Z,2.23
2018-07-19T10:59:43.030Z,2.97
2018-07-19T11:02:11.775Z,1.10
2018-07-19T11:04:40.138Z,2.80
2018-07-19T11:07:08.558Z,6.97
2018-07-19T11:09:36.968Z,1.53
2018-07-19T11:12:05.352Z,2.53
2018-07-19T11:14:33.727Z,1.10
2018-07-19T11:17:02.149Z,1.90
2018-07-19T11:19:30.529Z,1.83
2018-07-19T11:21:58.918Z,2.40
2018-07-19T11:24:27.283Z,1.50
2018-07-19T11:26:55.681Z,3.03
2018-07-19T11:29:24.051Z,13.10
2018-07-19T11:31:52.479Z,11.73
2018-07-19T11:34:20.853Z,13.33
2018-07-19T11:36:49.246Z,3.67
2018-07-19T11:39:17.622Z,6.63
2018-07-19T11:41:46.006Z,2.17
2018-07-19T11:44:14.433Z,8.37
2018-07-19T11:46:42.826Z,4.43
2018-07-19T11:49:11.183Z,4.43
2018-07-19T11:51:39.587Z,2.43
2018-07-19T11:54:07.982Z,4.50
2018-07-19T11:56:36.387Z,4.73
2018-07-19T11:59:04.749Z,2.83
2018-07-19T12:01:33.119Z,5.80
2018-07-19T12:04:01.513Z,5.13
2018-07-19T12:06:29.882Z,3.67
2018-07-19T12:08:58.278Z,2.60
2018-07-19T12:11:26.638Z,2.37
2018-07-19T12:13:55.026Z,5.33
2018-07-19T12:16:23.418Z,2.57
2018-07-19T12:18:51.810Z,7.17
2018-07-19T12:21:20.206Z,2.00
2018-07-19T12:23:48.592Z,4.90
2018-07-19T12:26:16.957Z,3.33
2018-07-19T12:28:45.347Z,2.70
2018-07-19T12:31:13.717Z,3.67
2018-07-19T12:33:42.112Z,6.40
2018-07-19T12:36:10.482Z,2.67
2018-07-19T12:38:38.871Z,1.80
2018-07-19T12:41:07.548Z,4.90
2018-07-19T12:43:35.942Z,3.10
2018-07-19T12:46:04.334Z,5.03
2018-07-19T12:48:32.732Z,2.63
2018-07-19T12:51:01.140Z,3.87
2018-07-19T12:53:29.540Z,5.03
2018-07-19T12:55:57.905Z,4.70
2018-07-19T12:58:26.306Z,8.23
2018-07-19T13:00:54.685Z,13.53
2018-07-19T13:03:23.086Z,5.17
2018-07-19T13:05:51.451Z,4.43
2018-07-19T13:08:19.848Z,3.97
2018-07-19T13:10:48.218Z,3.77
2018-07-19T13:13:16.614Z,3.73
2018-07-19T13:15:45.001Z,2.30
2018-07-19T13:18:13.403Z,2.73
2018-07-19T13:20:41.777Z,3.70
2018-07-19T13:23:10.178Z,3.37
2018-07-19T13:25:38.546Z,2.53
2018-07-19T13:28:06.942Z,12.60
2018-07-19T13:30:35.312Z,2.83
2018-07-19T13:33:03.698Z,2.40
2018-07-19T13:35:32.095Z,2.60
2018-07-19T13:38:00.483Z,6.70
2018-07-19T13:40:28.851Z,3.00
2018-07-19T13:42:57.250Z,2.97
2018-07-19T13:45:25.680Z,2.20
2018-07-19T13:47:54.075Z,2.83
2018-07-19T13:50:22.442Z,5.50
2018-07-19T13:53:02.282Z,2.90
2018-07-19T13:55:30.655Z,2.40
2018-07-19T13:57:59.062Z,3.80
2018-07-19T14:00:27.439Z,2.67
2018-07-19T14:02:55.811Z,2.93
2018-07-19T14:05:24.202Z,2.73
2018-07-19T14:07:52.568Z,3.87
2018-07-19T14:10:20.953Z,2.67
2018-07-19T14:12:49.317Z,2.80
2018-07-19T14:15:17.885Z,4.67
2018-07-19T14:17:46.258Z,3.80
2018-07-19T14:20:14.668Z,3.17
2018-07-19T14:22:43.030Z,6.87
2018-07-19T14:25:11.431Z,2.60
2018-07-19T14:27:39.807Z,3.00
2018-07-19T14:30:08.203Z,3.33
2018-07-19T14:32:36.575Z,4.50
2018-07-19T14:35:05.135Z,2.90
2018-07-19T14:37:33.508Z,2.50
2018-07-19T14:40:01.898Z,3.47
2018-07-19T14:42:30.265Z,2.90
2018-07-19T14:44:58.663Z,8.23
2018-07-19T14:47:27.034Z,5.73
2018-07-19T14:49:55.435Z,3.77
2018-07-19T14:52:23.802Z,3.10
2018-07-19T14:54:52.191Z,2.93
2018-07-19T14:57:20.549Z,3.13
2018-07-19T14:59:48.942Z,8.20
2018-07-19T15:02:17.310Z,4.17
2018-07-19T15:04:45.694Z,2.33
2018-07-19T15:07:14.058Z,3.43
2018-07-19T15:09:42.446Z,5.20
2018-07-19T15:12:10.823Z,2.40
2018-07-19T15:14:39.223Z,2.90
2018-07-19T15:17:07.622Z,3.50
2018-07-19T15:19:36.018Z,3.63
2018-07-19T15:22:04.514Z,3.13
2018-07-19T15:24:32.897Z,2.77
2018-07-19T15:27:01.263Z,2.87
2018-07-19T15:29:29.659Z,5.33
2018-07-19T15:31:58.028Z,3.70
2018-07-19T15:34:26.442Z,4.37
2018-07-19T15:36:55.077Z,3.73
2018-07-19T15:39:23.471Z,3.93
2018-07-19T15:41:51.842Z,3.80
2018-07-19T15:44:20.229Z,3.80
2018-07-19T15:46:48.622Z,24.33
2018-07-19T15:49:17.052Z,7.73
2018-07-19T15:51:45.427Z,3.97
2018-07-19T15:54:13.883Z,6.80
2018-07-19T15:56:42.253Z,10.93
2018-07-19T15:59:10.644Z,3.80
2018-07-19T16:01:39.071Z,4.83
2018-07-19T16:04:07.425Z,13.20
2018-07-19T16:06:35.809Z,4.53
2018-07-19T16:09:07.638Z,3.90
2018-07-19T16:11:36.030Z,7.83
2018-07-19T16:14:04.562Z,4.60
2018-07-19T16:16:32.980Z,4.37
2018-07-19T16:19:01.358Z,11.67
2018-07-19T16:21:29.773Z,5.13
2018-07-19T16:23:58.142Z,13.87
2018-07-19T16:26:26.535Z,7.03
2018-07-19T16:28:54.907Z,5.57
2018-07-19T16:31:23.295Z,4.83
2018-07-19T16:33:51.670Z,17.27
2018-07-19T16:36:20.070Z,12.33
2018-07-19T16:38:48.447Z,8.70
2018-07-19T16:41:16.851Z,4.33
2018-07-19T16:43:45.299Z,11.37
2018-07-19T16:46:13.686Z,5.30
2018-07-19T16:48:42.055Z,3.90
2018-07-19T16:51:10.606Z,5.53
2018-07-19T16:53:39.037Z,3.50
2018-07-19T16:56:07.429Z,3.73
2018-07-19T16:58:35.911Z,3.80
2018-07-19T17:01:04.326Z,5.43
2018-07-19T17:03:32.694Z,4.10
2018-07-19T17:06:01.085Z,3.83
2018-07-19T17:08:30.364Z,5.45
2018-07-19T17:10:59.777Z,4.90
2018-07-19T17:13:29.343Z,3.80
2018-07-19T17:15:58.122Z,7.50
2018-07-19T17:18:26.808Z,12.80
2018-07-19T17:20:55.390Z,5.23
2018-07-19T17:23:23.773Z,6.63
2018-07-19T17:25:52.209Z,4.07
2018-07-19T17:28:20.750Z,5.87
2018-07-19T17:30:49.145Z,6.73
2018-07-19T17:33:17.555Z,4.53
2018-07-19T17:35:46.043Z,4.20
2018-07-19T17:38:14.424Z,4.87
2018-07-19T17:40:42.922Z,5.90
2018-07-19T17:43:11.383Z,3.87
2018-07-19T17:45:39.786Z,5.80
2018-07-19T17:48:08.155Z,4.00
2018-07-19T17:50:36.574Z,5.47
2018-07-19T17:53:05.209Z,7.03
2018-07-19T17:55:33.761Z,8.60
2018-07-19T17:58:02.138Z,4.60
2018-07-19T18:00:30.551Z,5.23
2018-07-19T18:02:58.913Z,3.10
2018-07-19T18:05:27.282Z,6.57
2018-07-19T18:07:55.691Z,4.97
2018-07-19T18:10:24.086Z,5.27
2018-07-19T18:12:52.626Z,5.20
2018-07-19T18:15:21.014Z,9.50
2018-07-19T18:17:49.394Z,5.90
2018-07-19T18:20:17.795Z,12.73
2018-07-19T18:22:46.246Z,5.57
2018-07-19T18:25:14.620Z,3.40
2018-07-19T18:27:43.010Z,6.73
2018-07-19T18:30:11.374Z,4.63
2018-07-19T18:32:39.763Z,4.07
2018-07-19T18:35:08.138Z,4.77
2018-07-19T18:37:36.526Z,4.60
2018-07-19T18:40:04.931Z,6.27
2018-07-19T18:42:33.317Z,8.80
2018-07-19T18:45:01.706Z,11.43
2018-07-19T18:47:30.111Z,5.00
2018-07-19T18:49:58.471Z,5.23
2018-07-19T18:52:26.853Z,6.97
2018-07-19T18:54:55.227Z,3.77
2018-07-19T18:57:23.682Z,9.30
2018-07-19T18:59:52.058Z,4.97
2018-07-19T19:02:20.500Z,7.50
2018-07-19T19:04:48.966Z,4.60
2018-07-19T19:07:17.390Z,4.40
2018-07-19T19:09:45.866Z,4.00
2018-07-19T19:12:14.259Z,3.83
2018-07-19T19:14:42.662Z,11.93
2018-07-19T19:17:11.111Z,5.67
2018-07-19T19:19:39.534Z,5.30
2018-07-19T19:22:07.998Z,6.20
2018-07-19T19:24:36.409Z,7.67
2018-07-19T19:27:04.794Z,5.13
2018-07-19T19:29:33.186Z,4.17
2018-07-19T19:32:01.595Z,7.07
2018-07-19T19:34:29.978Z,14.07
2018-07-19T19:36:58.520Z,5.00
2018-07-19T19:39:26.861Z,4.63
2018-07-19T19:41:55.260Z,5.07
2018-07-19T19:44:23.834Z,5.20
2018-07-19T19:46:52.393Z,4.30
2018-07-19T19:49:20.810Z,8.73
2018-07-19T19:51:49.193Z,5.20
2018-07-19T19:54:17.680Z,6.33
2018-07-19T19:56:46.458Z,4.87
2018-07-19T19:59:14.824Z,5.60
2018-07-19T20:01:43.413Z,10.80
2018-07-19T20:04:11.847Z,12.70
2018-07-19T20:06:40.390Z,6.80
2018-07-19T20:09:10.739Z,12.70
2018-07-19T20:11:39.118Z,16.73
2018-07-19T20:14:07.637Z,15.77
2018-07-19T20:16:36.127Z,24.43
2018-07-19T20:19:04.990Z,8.80
2018-07-19T20:21:33.511Z,5.77
2018-07-19T20:24:02.043Z,10.23
2018-07-19T20:26:30.694Z,7.83
2018-07-19T20:28:59.171Z,8.30
2018-07-19T20:31:27.548Z,7.30
2018-07-19T20:33:56.002Z,16.03
2018-07-19T20:36:24.369Z,10.57
2018-07-19T20:38:52.759Z,8.40
2018-07-19T20:41:21.145Z,7.10
2018-07-19T20:43:49.537Z,5.83
2018-07-19T20:46:17.903Z,10.57
2018-07-19T20:48:46.311Z,9.93
2018-07-19T20:51:14.680Z,9.70
2018-07-19T20:53:43.082Z,9.20
2018-07-19T20:56:11.460Z,12.73
2018-07-19T20:58:39.853Z,18.73
2018-07-19T21:01:08.267Z,13.20
2018-07-19T21:03:36.673Z,10.57
2018-07-19T21:06:05.038Z,8.20
2018-07-19T21:08:33.440Z,8.83
2018-07-19T21:11:01.819Z,13.90
2018-07-19T21:13:30.211Z,21.53
2018-07-19T21:15:58.605Z,18.20
2018-07-19T21:18:26.993Z,21.47
2018-07-19T21:20:55.365Z,24.07
2018-07-19T21:23:23.767Z,14.03
2018-07-19T21:25:52.144Z,23.53
2018-07-19T21:28:20.538Z,17.57
2018-07-19T21:30:48.931Z,25.53
2018-07-19T21:33:17.335Z,20.27
2018-07-19T21:35:45.710Z,34.37
2018-07-19T21:38:14.106Z,11.80
2018-07-19T21:40:42.494Z,11.47
2018-07-19T21:43:10.897Z,22.20
2018-07-19T21:45:39.293Z,18.20
2018-07-19T21:48:07.692Z,11.87
2018-07-19T21:50:36.057Z,11.57
2018-07-19T21:53:04.455Z,16.57
2018-07-19T21:55:32.826Z,10.20
2018-07-19T21:58:01.218Z,13.47
2018-07-19T22:00:30.743Z,6.53
2018-07-19T22:03:00.579Z,13.43
2018-07-19T22:05:28.950Z,11.50
2018-07-19T22:07:57.366Z,12.37
2018-07-19T22:10:25.753Z,4.90
2018-07-19T22:12:54.129Z,7.20
2018-07-19T22:15:22.541Z,9.20
2018-07-19T22:17:50.911Z,5.63
2018-07-19T22:20:19.298Z,12.33
2018-07-19T22:22:47.670Z,13.30
2018-07-19T22:25:16.055Z,6.87
2018-07-19T22:27:44.434Z,9.50
2018-07-19T22:30:12.821Z,7.73
2018-07-19T22:32:41.173Z,5.60
2018-07-19T22:35:09.565Z,11.43
2018-07-19T22:37:37.936Z,7.57
2018-07-19T22:40:06.334Z,12.53
2018-07-19T22:42:34.705Z,4.63
2018-07-19T22:45:03.088Z,6.27
2018-07-19T22:47:31.461Z,4.83
2018-07-19T22:49:59.868Z,5.03
2018-07-19T22:52:28.230Z,6.00
2018-07-19T22:54:56.618Z,5.73
2018-07-19T22:57:24.986Z,7.43
2018-07-19T22:59:53.395Z,5.90
2018-07-19T23:02:21.762Z,9.23
2018-07-19T23:04:50.162Z,5.97
2018-07-19T23:07:18.533Z,12.20
2018-07-19T23:09:46.918Z,6.10
2018-07-19T23:12:15.287Z,5.97
2018-07-19T23:14:43.723Z,5.37
2018-07-19T23:17:12.101Z,4.97
2018-07-19T23:19:40.482Z,8.10
2018-07-19T23:22:08.871Z,4.90
2018-07-19T23:24:37.389Z,10.50
2018-07-19T23:27:05.761Z,12.33
2018-07-19T23:29:34.467Z,7.20
2018-07-19T23:32:02.972Z,8.23
2018-07-19T23:34:31.387Z,5.93
2018-07-19T23:37:02.650Z,8.83
2018-07-19T23:39:36.399Z,18.63
2018-07-19T23:42:10.081Z,12.00
2018-07-19T23:44:43.574Z,6.60
2018-07-19T23:47:16.043Z,8.80
2018-07-19T23:49:44.436Z,7.97
2018-07-19T23:52:12.811Z,8.77
2018-07-19T23:54:41.202Z,8.00
2018-07-19T23:57:09.579Z,16.63
2018-07-19T23:59:37.979Z,8.00
